Time;durP1;ratioP1;P1;durP2;ratioP2;P2;SDS_P1;SDS_P2;PMS_P1;PMS_P2;Temp;Humidity;BMP_temperature;BMP_pressure;BME280_temperature;BME280_humidity;BME280_pressure;Samples;Min_cycle;Max_cycle;Signal;HPM_P1;HPM_P2
2022/07/28 00:01:12;;;;;;;8.10;6.43;;;15.70;99.90;;;;;;5135284;27;20233;-76
2022/07/28 00:03:40;;;;;;;6.60;5.93;;;15.60;99.90;;;;;;5135859;27;20206;-77
2022/07/28 00:06:10;;;;;;;7.83;6.90;;;15.60;99.90;;;;;;5135557;27;20209;-79
2022/07/28 00:08:38;;;;;;;7.97;6.90;;;15.60;99.90;;;;;;5135946;27;20233;-76
2022/07/28 00:11:07;;;;;;;9.73;7.03;;;15.60;99.90;;;;;;5135281;27;20770;-76
2022/07/28 00:13:35;;;;;;;9.40;7.10;;;15.50;99.90;;;;;;5134605;27;20225;-77
2022/07/28 00:16:05;;;;;;;9.43;7.40;;;15.50;99.90;;;;;;5135206;27;20307;-78
2022/07/28 00:18:35;;;;;;;9.40;7.37;;;15.50;99.90;;;;;;5135393;27;20594;-79
2022/07/28 00:21:04;;;;;;;9.00;7.33;;;15.50;99.90;;;;;;5134941;27;20672;-76
2022/07/28 00:23:34;;;;;;;9.20;7.40;;;15.40;99.90;;;;;;5135038;27;20710;-78
2022/07/28 00:26:09;;;;;;;9.63;7.80;;;15.40;99.90;;;;;;5135633;27;20277;-76
2022/07/28 00:28:38;;;;;;;9.90;7.97;;;15.40;99.90;;;;;;5134994;27;20600;-76
2022/07/28 00:31:07;;;;;;;10.47;8.23;;;15.40;99.90;;;;;;5134640;27;20305;-76
2022/07/28 00:33:39;;;;;;;8.90;8.00;;;15.40;99.90;;;;;;5134727;27;20635;-78
2022/07/28 00:36:11;;;;;;;9.27;8.27;;;15.40;99.90;;;;;;5135117;27;20598;-78
2022/07/28 00:38:42;;;;;;;9.27;7.40;;;15.30;99.90;;;;;;5135058;27;20217;-77
2022/07/28 00:41:11;;;;;;;9.27;8.27;;;15.30;99.90;;;;;;5134925;27;20197;-78
2022/07/28 00:43:41;;;;;;;11.40;8.47;;;15.30;99.90;;;;;;5134573;27;20217;-78
2022/07/28 00:46:09;;;;;;;11.63;8.67;;;15.30;99.90;;;;;;5135042;27;20232;-77
2022/07/28 00:48:38;;;;;;;9.80;8.80;;;15.30;99.90;;;;;;5134871;27;20731;-79
2022/07/28 00:51:08;;;;;;;9.30;8.40;;;15.30;99.90;;;;;;5134600;27;20222;-77
2022/07/28 00:53:37;;;;;;;10.40;9.20;;;15.30;99.90;;;;;;5134979;27;20562;-78
2022/07/28 00:56:07;;;;;;;11.30;8.90;;;15.30;99.90;;;;;;5134715;27;20204;-77
2022/07/28 00:58:36;;;;;;;10.83;9.27;;;15.30;99.90;;;;;;5135176;27;20264;-78
2022/07/28 01:01:05;;;;;;;10.27;9.17;;;15.30;99.90;;;;;;5134788;27;20225;-76
2022/07/28 01:03:36;;;;;;;10.57;9.47;;;15.30;99.90;;;;;;5135255;27;20312;-76
2022/07/28 01:06:10;;;;;;;10.70;8.90;;;15.30;99.90;;;;;;5134194;27;20690;-78
2022/07/28 01:08:52;;;;;;;11.63;9.60;;;15.30;99.90;;;;;;5135294;27;20224;-77
2022/07/28 01:11:31;;;;;;;10.70;9.70;;;15.30;99.90;;;;;;5138234;27;20209;-76
2022/07/28 01:14:16;;;;;;;10.97;9.83;;;15.30;99.90;;;;;;5136616;27;20209;-76
2022/07/28 01:16:54;;;;;;;11.50;9.70;;;15.20;99.90;;;;;;5124921;27;20236;-79
2022/07/28 01:19:37;;;;;;;10.93;9.50;;;15.20;99.90;;;;;;5115119;28;20218;-78
2022/07/28 01:22:09;;;;;;;14.57;10.33;;;15.20;99.90;;;;;;5114038;28;20187;-77
2022/07/28 01:24:49;;;;;;;11.30;10.10;;;15.20;99.90;;;;;;5114384;28;20191;-79
2022/07/28 01:27:40;;;;;;;12.97;10.33;;;15.20;99.90;;;;;;5114129;28;20602;-77
2022/07/28 01:30:32;;;;;;;13.27;9.97;;;15.20;99.90;;;;;;5113418;28;20333;-76
2022/07/28 01:33:04;;;;;;;10.73;9.63;;;15.10;99.90;;;;;;5113289;28;20248;-77
2022/07/28 01:35:37;;;;;;;11.80;9.47;;;15.20;99.90;;;;;;5114210;28;20221;-77
2022/07/28 01:38:10;;;;;;;10.73;9.63;;;15.10;99.90;;;;;;5113402;28;20352;-77
2022/07/28 01:40:42;;;;;;;13.93;10.50;;;15.10;99.90;;;;;;5114172;28;20194;-77
2022/07/28 01:43:16;;;;;;;12.40;10.37;;;15.10;99.90;;;;;;5114092;28;20202;-78
2022/07/28 01:45:46;;;;;;;11.37;10.27;;;15.10;99.90;;;;;;5113367;28;20237;-77
2022/07/28 01:48:17;;;;;;;12.83;9.97;;;15.20;99.90;;;;;;5113443;28;20296;-78
2022/07/28 01:50:48;;;;;;;12.47;9.90;;;15.20;99.90;;;;;;5119894;28;20309;-77
2022/07/28 01:53:17;;;;;;;11.90;10.30;;;15.20;99.90;;;;;;5134115;28;20215;-78
2022/07/28 01:55:48;;;;;;;12.47;10.10;;;15.20;99.90;;;;;;5131005;28;20201;-77
2022/07/28 01:58:20;;;;;;;11.07;9.97;;;15.20;99.90;;;;;;5133976;28;20671;-77
2022/07/28 02:00:51;;;;;;;11.40;9.90;;;15.20;99.90;;;;;;5113498;28;20624;-78
2022/07/28 02:03:24;;;;;;;12.03;9.97;;;15.20;99.90;;;;;;5113724;28;20233;-79
2022/07/28 02:05:55;;;;;;;11.33;10.17;;;15.20;99.90;;;;;;5132299;28;20201;-78
2022/07/28 02:08:25;;;;;;;11.30;10.03;;;15.20;99.90;;;;;;5133944;28;20292;-80
2022/07/28 02:13:43;;;;;;;10.73;9.70;;;15.20;99.90;;;;;;5134427;28;20190;-77
2022/07/28 02:16:15;;;;;;;10.77;9.57;;;15.20;99.90;;;;;;5134704;28;20209;-79
2022/07/28 02:18:45;;;;;;;10.83;9.70;;;15.20;99.90;;;;;;5135132;28;20209;-78
2022/07/28 02:21:14;;;;;;;11.47;9.80;;;15.20;99.90;;;;;;5136381;28;20204;-77
2022/07/28 02:23:45;;;;;;;11.23;9.90;;;15.20;99.90;;;;;;5135179;28;20284;-78
2022/07/28 02:26:16;;;;;;;11.43;9.50;;;15.20;99.90;;;;;;5134302;28;20231;-78
2022/07/28 02:28:50;;;;;;;13.07;10.27;;;15.20;99.90;;;;;;5134965;28;20222;-78
2022/07/28 02:31:25;;;;;;;12.27;9.90;;;15.10;99.90;;;;;;5137728;28;20214;-78
2022/07/28 02:33:58;;;;;;;10.67;9.57;;;15.10;99.90;;;;;;5139256;28;20196;-78
2022/07/28 02:36:32;;;;;;;11.27;9.50;;;15.10;99.90;;;;;;5144097;27;20193;-78
2022/07/28 02:39:05;;;;;;;13.70;9.37;;;15.10;99.90;;;;;;5144179;27;20233;-77
2022/07/28 02:41:37;;;;;;;10.23;9.23;;;15.10;99.90;;;;;;5145006;27;20185;-78
2022/07/28 02:44:12;;;;;;;12.07;9.77;;;15.00;99.90;;;;;;5145306;27;20221;-79
2022/07/28 02:46:46;;;;;;;12.83;10.10;;;15.00;99.90;;;;;;5139407;27;20193;-78
2022/07/28 02:49:19;;;;;;;11.03;9.83;;;15.00;99.90;;;;;;5138557;27;20280;-77
2022/07/28 02:51:51;;;;;;;10.63;9.60;;;15.00;99.90;;;;;;5137803;27;20220;-79
2022/07/28 02:54:20;;;;;;;10.87;9.73;;;15.00;99.90;;;;;;5138011;27;20185;-78
2022/07/28 02:56:51;;;;;;;13.40;9.63;;;15.00;99.90;;;;;;5137987;27;20205;-77
2022/07/28 02:59:21;;;;;;;10.13;9.07;;;15.00;99.90;;;;;;5137742;27;20224;-77
2022/07/28 03:01:51;;;;;;;10.30;9.30;;;15.00;99.90;;;;;;5137584;27;20240;-77
2022/07/28 03:04:55;;;;;;;11.17;9.33;;;15.00;99.90;;;;;;5137194;27;20190;-78
2022/07/28 03:07:09;;;;;;;10.30;9.20;;;15.00;99.90;;;;;;5136920;27;20216;-77
2022/07/28 03:09:40;;;;;;;10.20;8.83;;;15.00;99.90;;;;;;5136744;27;20205;-78
2022/07/28 03:12:09;;;;;;;12.00;9.80;;;15.00;99.90;;;;;;5137043;27;20226;-78
2022/07/28 03:14:41;;;;;;;11.07;9.53;;;14.90;99.90;;;;;;5137083;27;20215;-76
2022/07/28 03:17:11;;;;;;;11.70;9.70;;;14.90;99.90;;;;;;5137123;27;20242;-76
2022/07/28 03:19:39;;;;;;;11.23;9.80;;;14.90;99.90;;;;;;5136731;27;20206;-78
2022/07/28 03:22:11;;;;;;;10.87;9.67;;;14.80;99.90;;;;;;5136576;27;20247;-77
2022/07/28 03:24:45;;;;;;;10.67;9.23;;;14.80;99.90;;;;;;5136917;27;20236;-77
2022/07/28 03:27:24;;;;;;;11.77;10.00;;;14.70;99.90;;;;;;5134259;27;20216;-76
2022/07/28 03:29:57;;;;;;;10.57;9.27;;;14.70;99.90;;;;;;5130752;27;20225;-78
2022/07/28 03:32:35;;;;;;;10.80;9.80;;;14.70;99.90;;;;;;5136382;27;20209;-77
2022/07/28 03:35:03;;;;;;;11.23;10.03;;;14.70;99.90;;;;;;5136371;27;20388;-77
2022/07/28 03:37:37;;;;;;;10.60;9.60;;;14.70;99.90;;;;;;5136859;27;20206;-77
2022/07/28 03:40:12;;;;;;;12.80;9.90;;;14.70;99.90;;;;;;5130663;27;20244;-77
2022/07/28 03:42:43;;;;;;;11.23;10.13;;;14.70;99.90;;;;;;5136651;27;20258;-78
2022/07/28 03:45:11;;;;;;;11.17;9.97;;;14.70;99.90;;;;;;5129838;27;20262;-78
2022/07/28 03:47:50;;;;;;;11.70;10.50;;;14.70;99.90;;;;;;5131878;27;20284;-78
2022/07/28 03:50:21;;;;;;;13.27;10.37;;;14.70;99.90;;;;;;5130593;27;20241;-77
2022/07/28 03:52:49;;;;;;;12.43;10.10;;;14.70;99.90;;;;;;5115894;28;20255;-77
2022/07/28 03:55:18;;;;;;;13.83;10.13;;;14.70;99.90;;;;;;5116067;28;20241;-77
2022/07/28 03:57:46;;;;;;;10.37;9.37;;;14.70;99.90;;;;;;5116173;28;20281;-77
2022/07/28 04:00:16;;;;;;;10.90;9.90;;;14.70;99.90;;;;;;5131411;27;20254;-77
2022/07/28 04:02:48;;;;;;;11.73;10.47;;;14.70;99.90;;;;;;5136258;27;20201;-78
2022/07/28 04:05:18;;;;;;;12.10;10.17;;;14.70;99.90;;;;;;5136567;27;20215;-78
2022/07/28 04:07:46;;;;;;;12.63;9.90;;;14.80;99.90;;;;;;5135978;27;20240;-78
2022/07/28 04:10:17;;;;;;;10.70;9.70;;;14.80;99.90;;;;;;5136048;27;20236;-79
2022/07/28 04:12:48;;;;;;;12.83;10.00;;;14.80;99.90;;;;;;5134974;27;20213;-78
2022/07/28 04:15:17;;;;;;;10.33;9.33;;;14.80;99.90;;;;;;5134106;27;20198;-79
2022/07/28 04:17:48;;;;;;;13.97;9.90;;;14.90;99.90;;;;;;5135404;27;20228;-78
2022/07/28 04:20:17;;;;;;;12.60;10.30;;;14.90;99.90;;;;;;5135109;27;20632;-78
2022/07/28 04:22:46;;;;;;;11.73;9.60;;;14.90;99.90;;;;;;5119710;27;20209;-77
2022/07/28 04:25:17;;;;;;;10.30;9.27;;;14.90;99.90;;;;;;5126352;27;20542;-76
2022/07/28 04:27:46;;;;;;;12.10;9.37;;;15.10;99.90;;;;;;5136255;27;20217;-78
2022/07/28 04:30:18;;;;;;;10.03;9.03;;;15.20;99.90;;;;;;5135234;27;20627;-77
2022/07/28 04:32:50;;;;;;;10.30;9.10;;;15.20;99.90;;;;;;5135409;27;20731;-77
2022/07/28 04:35:18;;;;;;;11.43;8.47;;;15.30;99.90;;;;;;5135764;27;20237;-78
2022/07/28 04:37:48;;;;;;;12.83;10.13;;;15.30;99.90;;;;;;5135869;27;20221;-77
2022/07/28 04:40:16;;;;;;;10.87;9.30;;;15.30;99.90;;;;;;5135171;27;20276;-77
2022/07/28 04:42:44;;;;;;;10.33;8.80;;;15.30;99.90;;;;;;5135399;27;20217;-77
2022/07/28 04:45:13;;;;;;;12.53;8.90;;;15.40;99.90;;;;;;5135260;27;20226;-77
2022/07/28 04:47:42;;;;;;;10.53;9.23;;;15.30;99.90;;;;;;5135152;27;20262;-77
2022/07/28 04:50:14;;;;;;;11.67;8.90;;;15.40;99.90;;;;;;5128035;27;20247;-78
2022/07/28 04:52:42;;;;;;;11.17;9.10;;;15.40;99.90;;;;;;5134985;27;20217;-78
2022/07/28 04:55:12;;;;;;;10.27;9.20;;;15.40;99.90;;;;;;5135226;27;20202;-77
2022/07/28 04:57:40;;;;;;;10.93;8.93;;;15.30;99.90;;;;;;5135132;27;20233;-76
2022/07/28 05:00:12;;;;;;;11.47;9.10;;;15.30;99.90;;;;;;5134585;27;20224;-77
2022/07/28 05:02:41;;;;;;;10.47;8.43;;;15.30;99.90;;;;;;5134952;27;20193;-76
2022/07/28 05:05:12;;;;;;;10.27;8.97;;;15.40;99.90;;;;;;5135308;27;20224;-76
2022/07/28 05:07:41;;;;;;;10.50;9.50;;;15.30;99.90;;;;;;5134664;27;20186;-79
2022/07/28 05:10:14;;;;;;;10.03;9.00;;;15.30;99.90;;;;;;5134632;27;20293;-78
2022/07/28 05:12:44;;;;;;;11.30;9.10;;;15.50;99.90;;;;;;5135379;27;20244;-77
2022/07/28 05:15:12;;;;;;;11.80;8.90;;;15.50;99.90;;;;;;5135162;27;20617;-79
2022/07/28 05:17:41;;;;;;;11.07;9.50;;;15.50;99.90;;;;;;5135998;27;20265;-76
2022/07/28 05:20:13;;;;;;;9.93;8.33;;;15.60;99.90;;;;;;5135340;27;20197;-77
2022/07/28 05:22:43;;;;;;;10.00;8.33;;;15.80;99.90;;;;;;5137222;27;20626;-77
2022/07/28 05:25:17;;;;;;;9.63;8.17;;;15.80;99.90;;;;;;5134537;27;20281;-79
2022/07/28 05:27:49;;;;;;;10.70;9.07;;;15.70;99.90;;;;;;5132977;27;20320;-81
2022/07/28 05:30:18;;;;;;;10.13;8.63;;;15.70;99.90;;;;;;5129963;27;20198;-77
2022/07/28 05:32:49;;;;;;;10.87;8.83;;;15.70;99.90;;;;;;5134053;27;20256;-79
2022/07/28 05:35:20;;;;;;;11.00;8.70;;;15.70;99.90;;;;;;5134719;27;20201;-81
2022/07/28 05:37:48;;;;;;;9.80;8.80;;;15.80;99.90;;;;;;5134996;28;20217;-75
2022/07/28 05:40:17;;;;;;;9.50;8.10;;;15.80;99.90;;;;;;5135005;28;20205;-79
2022/07/28 05:42:47;;;;;;;10.43;8.27;;;15.90;99.90;;;;;;5134741;28;20215;-80
2022/07/28 05:45:16;;;;;;;13.03;8.40;;;15.90;99.90;;;;;;5135182;28;20205;-79
2022/07/28 05:47:46;;;;;;;10.00;8.20;;;16.00;99.90;;;;;;5134801;28;20683;-79
2022/07/28 05:50:15;;;;;;;11.23;7.90;;;16.20;99.90;;;;;;5134752;28;20300;-79
2022/07/28 05:52:46;;;;;;;10.50;7.63;;;16.30;99.90;;;;;;5135195;28;20586;-78
2022/07/28 05:55:17;;;;;;;9.70;7.50;;;16.50;99.90;;;;;;5134396;28;20840;-81
2022/07/28 05:57:46;;;;;;;10.97;6.97;;;16.80;99.90;;;;;;5134927;28;20193;-80
2022/07/28 06:00:17;;;;;;;8.70;6.97;;;17.20;99.90;;;;;;5135068;28;20254;-76
2022/07/28 06:02:49;;;;;;;9.10;6.20;;;18.10;99.90;;;;;;5138516;28;20657;-79
2022/07/28 06:05:19;;;;;;;7.80;5.47;;;19.00;99.90;;;;;;5133835;28;20205;-79
2022/07/28 06:07:51;;;;;;;8.47;5.57;;;19.80;99.90;;;;;;5134016;28;20209;-80
2022/07/28 06:10:21;;;;;;;10.63;5.70;;;20.40;99.90;;;;;;5138598;27;20232;-82
2022/07/28 06:12:53;;;;;;;7.80;5.27;;;21.20;99.90;;;;;;5153103;27;20706;-79
2022/07/28 06:15:24;;;;;;;8.33;5.13;;;21.70;99.90;;;;;;5159766;27;20592;-80
2022/07/28 06:17:54;;;;;;;6.33;4.77;;;21.40;99.90;;;;;;5142926;27;20265;-82
2022/07/28 06:20:24;;;;;;;8.67;6.33;;;21.50;99.90;;;;;;5139980;27;20202;-77
2022/07/28 06:22:54;;;;;;;8.53;4.80;;;21.20;99.90;;;;;;5137318;27;20212;-81
2022/07/28 06:25:27;;;;;;;5.70;4.57;;;21.00;99.90;;;;;;5139702;27;20202;-80
2022/07/28 06:27:57;;;;;;;9.47;4.93;;;21.60;99.90;;;;;;5138500;27;20614;-81
2022/07/28 06:30:26;;;;;;;6.83;5.03;;;22.30;99.90;;;;;;5138143;27;20632;-81
2022/07/28 06:32:56;;;;;;;7.77;5.00;;;22.40;99.90;;;;;;5139450;27;20229;-79
2022/07/28 06:35:25;;;;;;;6.40;4.57;;;22.30;99.90;;;;;;5138180;27;20222;-82
2022/07/28 06:37:56;;;;;;;6.30;4.27;;;22.90;99.90;;;;;;5136623;27;20213;-80
2022/07/28 06:40:24;;;;;;;6.27;4.20;;;22.90;99.90;;;;;;5118243;28;20290;-80
2022/07/28 06:42:52;;;;;;;8.67;4.43;;;23.90;99.90;;;;;;5119334;27;20206;-77
2022/07/28 06:45:20;;;;;;;7.93;4.30;;;24.20;99.90;;;;;;5117485;28;20255;-84
2022/07/28 06:47:49;;;;;;;4.83;3.87;;;23.90;99.90;;;;;;5117152;28;20203;-81
2022/07/28 06:50:19;;;;;;;5.80;4.00;;;24.20;99.90;;;;;;5117504;28;20289;-81
2022/07/28 06:52:58;;;;;;;7.17;4.10;;;24.30;99.90;;;;;;5117506;28;20210;-77
2022/07/28 06:55:27;;;;;;;6.20;3.83;;;24.00;99.90;;;;;;5123878;27;20243;-79
2022/07/28 06:58:03;;;;;;;8.10;4.30;;;23.80;99.90;;;;;;5138022;27;20628;-76
2022/07/28 07:00:31;;;;;;;4.93;4.10;;;23.50;99.90;;;;;;5152215;27;20201;-80
2022/07/28 07:03:00;;;;;;;6.47;4.13;;;24.00;99.90;;;;;;5157610;27;20201;-75
2022/07/28 07:05:30;;;;;;;7.13;3.87;;;24.30;99.90;;;;;;5157608;27;20292;-82
2022/07/28 07:08:01;;;;;;;5.00;3.70;;;24.60;99.90;;;;;;5157483;27;20193;-79
2022/07/28 07:10:31;;;;;;;6.90;4.00;;;25.20;99.90;;;;;;5157697;27;20197;-79
2022/07/28 07:12:59;;;;;;;5.17;3.83;;;25.20;99.90;;;;;;5135387;27;20233;-79
2022/07/28 07:15:28;;;;;;;5.50;3.77;;;25.30;99.90;;;;;;5117355;28;20646;-79
2022/07/28 07:17:56;;;;;;;4.87;3.60;;;26.00;99.90;;;;;;5116240;28;20228;-77
2022/07/28 07:20:24;;;;;;;6.13;3.73;;;26.00;99.90;;;;;;5115583;28;20665;-76
2022/07/28 07:22:54;;;;;;;6.33;3.80;;;25.90;99.90;;;;;;5121145;27;20201;-78
2022/07/28 07:25:24;;;;;;;4.77;3.70;;;26.20;99.90;;;;;;5136437;27;20759;-81
2022/07/28 07:27:52;;;;;;;5.27;3.80;;;27.00;99.90;;;;;;5137533;27;20240;-83
2022/07/28 07:30:21;;;;;;;5.57;3.45;;;26.90;99.90;;;;;;5137264;27;20217;-83
2022/07/28 07:32:49;;;;;;;4.55;3.30;;;27.60;99.90;;;;;;5139271;27;20262;-84
2022/07/28 07:35:17;;;;;;;5.72;3.10;;;28.20;99.90;;;;;;5137304;27;20218;-83
2022/07/28 07:37:46;;;;;;;7.85;3.30;;;29.10;98.70;;;;;;5137072;27;20251;-84
2022/07/28 07:40:14;;;;;;;5.20;3.20;;;29.30;99.40;;;;;;5136763;27;20237;-77
2022/07/28 07:42:44;;;;;;;6.15;3.30;;;29.50;96.80;;;;;;5137206;27;20699;-84
2022/07/28 07:45:13;;;;;;;5.07;3.15;;;29.40;95.90;;;;;;5127219;27;20241;-82
2022/07/28 07:47:41;;;;;;;5.38;2.90;;;29.60;96.10;;;;;;5132358;27;20206;-78
2022/07/28 07:50:10;;;;;;;6.35;3.00;;;29.60;95.20;;;;;;5135675;27;20228;-80
2022/07/28 07:52:38;;;;;;;5.03;3.33;;;29.30;96.10;;;;;;5136217;27;20749;-79
2022/07/28 07:55:07;;;;;;;4.68;2.92;;;29.80;95.00;;;;;;5135498;27;20225;-81
2022/07/28 07:57:35;;;;;;;5.18;3.08;;;30.60;93.40;;;;;;5135689;27;20270;-77
2022/07/28 08:00:06;;;;;;;5.15;2.80;;;30.00;92.80;;;;;;5135039;27;20230;-77
2022/07/28 08:02:55;;;;;;;6.57;3.05;;;30.10;93.90;;;;;;5134105;27;20229;-74
2022/07/28 08:05:23;;;;;;;4.53;2.83;;;30.60;92.20;;;;;;5135121;27;20663;-85
2022/07/28 08:08:04;;;;;;;7.07;3.00;;;30.90;92.20;;;;;;5136169;27;20296;-79
2022/07/28 08:10:33;;;;;;;5.05;2.97;;;30.70;91.20;;;;;;5136075;27;20259;-84
2022/07/28 08:13:01;;;;;;;6.20;3.10;;;30.30;91.60;;;;;;5136640;27;20319;-85
2022/07/28 08:15:33;;;;;;;7.60;3.00;;;30.40;91.50;;;;;;5136883;27;20213;-83
2022/07/28 08:18:02;;;;;;;4.57;2.92;;;29.90;92.30;;;;;;5150290;27;20604;-82
2022/07/28 08:20:30;;;;;;;6.50;2.97;;;30.00;92.20;;;;;;5142864;27;20214;-79
2022/07/28 08:22:58;;;;;;;5.07;3.10;;;30.70;90.90;;;;;;5122115;27;20209;-81
2022/07/28 08:25:29;;;;;;;6.93;3.13;;;30.30;91.60;;;;;;5138152;27;20202;-83
2022/07/28 08:27:59;;;;;;;5.38;3.20;;;29.30;92.20;;;;;;5137887;27;20720;-81
2022/07/28 08:30:28;;;;;;;3.28;2.97;;;28.50;93.00;;;;;;5139152;27;20277;-82
2022/07/28 08:33:01;;;;;;;6.28;3.00;;;28.90;93.20;;;;;;5135974;27;20194;-82
2022/07/28 08:35:30;;;;;;;4.45;2.95;;;28.80;93.80;;;;;;5129461;27;20589;-80
2022/07/28 08:38:04;;;;;;;4.28;2.72;;;30.20;92.30;;;;;;5136123;27;20302;-83
2022/07/28 08:40:32;;;;;;;5.38;2.90;;;31.10;90.50;;;;;;5136086;27;20628;-83
2022/07/28 08:43:06;;;;;;;3.55;2.78;;;31.10;89.40;;;;;;5125390;27;20245;-85
2022/07/28 08:45:36;;;;;;;3.97;2.40;;;30.90;90.90;;;;;;5156519;27;20612;-84
2022/07/28 08:48:10;;;;;;;6.57;2.58;;;31.60;90.20;;;;;;5155626;27;20870;-84
2022/07/28 08:50:38;;;;;;;3.35;2.70;;;31.70;89.30;;;;;;5140859;27;20243;-83
2022/07/28 08:53:07;;;;;;;4.63;2.85;;;32.20;86.30;;;;;;5114752;28;20225;-85
2022/07/28 08:55:39;;;;;;;6.60;2.50;;;32.60;89.00;;;;;;5114051;28;20674;-84
2022/07/28 08:58:07;;;;;;;4.85;2.65;;;32.80;84.90;;;;;;5113915;28;20202;-83
2022/07/28 09:00:36;;;;;;;4.22;2.83;;;33.10;80.60;;;;;;5113472;28;20302;-82
2022/07/28 09:03:06;;;;;;;6.15;2.78;;;32.20;82.30;;;;;;5115016;28;20234;-85
2022/07/28 09:05:35;;;;;;;5.70;2.40;;;32.40;83.50;;;;;;5121778;27;20208;-85
2022/07/28 09:08:05;;;;;;;4.05;2.50;;;32.50;82.90;;;;;;5114742;28;20213;-86
2022/07/28 09:10:43;;;;;;;4.90;2.28;;;32.80;82.20;;;;;;5114531;28;20542;-83
2022/07/28 09:13:29;;;;;;;5.03;2.42;;;32.90;81.00;;;;;;5115315;28;20193;-81
2022/07/28 09:15:58;;;;;;;5.22;2.60;;;32.80;77.50;;;;;;5115011;28;20247;-82
2022/07/28 09:18:28;;;;;;;5.72;2.42;;;33.30;78.40;;;;;;5115081;28;20213;-85
2022/07/28 09:20:56;;;;;;;3.88;2.30;;;32.70;79.30;;;;;;5113371;28;20237;-85
2022/07/28 09:23:25;;;;;;;6.50;2.70;;;33.70;77.60;;;;;;5122597;27;20244;-85
2022/07/28 09:26:11;;;;;;;4.45;2.40;;;32.40;78.10;;;;;;5135179;27;20202;-81
2022/07/28 09:28:48;;;;;;;3.95;2.40;;;32.00;77.60;;;;;;5135824;27;20217;-82
2022/07/28 09:31:16;;;;;;;4.65;2.80;;;31.70;78.50;;;;;;5135234;27;20662;-81
2022/07/28 09:33:59;;;;;;;4.18;2.35;;;31.90;78.90;;;;;;5134719;27;20205;-83
2022/07/28 09:36:28;;;;;;;5.50;3.00;;;31.80;79.40;;;;;;5135790;27;20197;-80
2022/07/28 09:38:57;;;;;;;3.60;2.58;;;31.90;79.30;;;;;;5135627;28;20210;-83
2022/07/28 09:41:26;;;;;;;5.28;2.00;;;32.30;81.00;;;;;;5135220;28;20214;-82
2022/07/28 09:43:56;;;;;;;3.85;2.17;;;33.40;76.60;;;;;;5136643;28;20727;-85
2022/07/28 09:46:25;;;;;;;3.58;2.47;;;32.90;75.80;;;;;;5138612;27;20194;-80
2022/07/28 09:49:02;;;;;;;3.10;2.45;;;32.50;76.00;;;;;;5143059;27;20217;-82
2022/07/28 09:51:33;;;;;;;5.68;2.40;;;31.90;75.50;;;;;;5142044;27;20205;-84
2022/07/28 09:54:09;;;;;;;4.85;2.30;;;31.30;78.50;;;;;;5141548;27;20260;-82
2022/07/28 09:56:38;;;;;;;4.18;2.45;;;31.40;78.00;;;;;;5140957;27;20225;-83
2022/07/28 09:59:07;;;;;;;5.65;2.60;;;32.40;77.70;;;;;;5143269;27;20575;-80
2022/07/28 10:01:52;;;;;;;5.95;2.65;;;33.00;76.20;;;;;;5147230;27;20240;-83
2022/07/28 10:04:33;;;;;;;3.97;2.17;;;33.50;76.50;;;;;;5124142;28;20194;-80
2022/07/28 10:07:05;;;;;;;2.90;2.40;;;33.40;71.90;;;;;;5124761;28;20239;-81
2022/07/28 10:09:34;;;;;;;7.00;2.40;;;33.70;71.90;;;;;;5123177;28;20210;-82
2022/07/28 10:12:20;;;;;;;4.22;2.40;;;33.30;73.20;;;;;;5127627;27;20468;-77
2022/07/28 10:14:51;;;;;;;3.97;2.30;;;33.80;69.80;;;;;;5132568;27;20687;-83
2022/07/28 10:17:27;;;;;;;4.13;2.30;;;33.50;71.50;;;;;;5131015;27;20566;-82
2022/07/28 10:19:58;;;;;;;4.00;2.45;;;33.80;70.50;;;;;;5128725;27;20637;-84
2022/07/28 10:22:28;;;;;;;3.83;2.40;;;33.40;74.50;;;;;;5123417;27;20225;-82
2022/07/28 10:25:00;;;;;;;4.50;2.38;;;33.50;70.00;;;;;;5118077;28;20194;-83
2022/07/28 10:27:30;;;;;;;3.92;2.15;;;33.50;70.70;;;;;;5117799;28;20194;-85
2022/07/28 10:29:59;;;;;;;3.70;2.22;;;33.30;70.30;;;;;;5118692;28;20286;-83
2022/07/28 10:32:31;;;;;;;5.35;2.65;;;33.20;75.90;;;;;;5117879;28;20302;-83
2022/07/28 10:35:05;;;;;;;6.43;2.40;;;33.10;69.70;;;;;;5137029;27;20225;-83
2022/07/28 10:37:37;;;;;;;2.33;2.10;;;32.90;73.10;;;;;;5138171;27;20655;-79
2022/07/28 10:40:08;;;;;;;5.60;2.40;;;32.50;71.90;;;;;;5136704;27;20206;-84
2022/07/28 10:42:39;;;;;;;5.97;2.20;;;32.40;73.20;;;;;;5117975;28;20515;-82
2022/07/28 10:45:10;;;;;;;6.45;2.22;;;32.80;71.40;;;;;;5117938;28;20223;-80
2022/07/28 10:47:39;;;;;;;4.15;2.45;;;32.90;71.80;;;;;;5117432;28;20259;-80
2022/07/28 10:50:10;;;;;;;5.05;2.35;;;32.70;70.00;;;;;;5116890;28;20241;-83
2022/07/28 10:52:42;;;;;;;3.15;2.28;;;32.40;71.80;;;;;;5118627;28;20210;-84
2022/07/28 10:55:37;;;;;;;6.22;2.58;;;32.70;70.30;;;;;;5116365;28;20217;-83
2022/07/28 10:58:14;;;;;;;4.30;2.45;;;32.90;69.80;;;;;;5130677;27;20230;-84
2022/07/28 11:00:47;;;;;;;3.88;2.42;;;33.10;71.40;;;;;;5137092;27;20297;-83
2022/07/28 11:03:41;;;;;;;4.60;2.22;;;33.10;69.30;;;;;;5136913;27;20555;-81
2022/07/28 11:06:33;;;;;;;5.18;2.25;;;32.80;68.70;;;;;;5136628;27;20604;-83
2022/07/28 11:09:21;;;;;;;4.75;2.38;;;32.70;68.60;;;;;;5137175;27;20628;-79
2022/07/28 11:11:51;;;;;;;5.55;2.22;;;31.90;71.20;;;;;;5116546;27;20263;-84
2022/07/28 11:14:34;;;;;;;5.03;2.28;;;31.50;73.40;;;;;;5116301;28;20207;-81
2022/07/28 11:17:19;;;;;;;3.92;2.25;;;31.00;72.60;;;;;;5116458;28;20222;-81
2022/07/28 11:20:00;;;;;;;5.15;2.13;;;30.60;72.70;;;;;;5115863;28;20191;-81
2022/07/28 11:22:51;;;;;;;4.55;2.20;;;30.90;72.10;;;;;;5115637;28;20209;-78
2022/07/28 11:25:19;;;;;;;6.00;2.20;;;30.60;72.90;;;;;;5116132;28;20262;-85
2022/07/28 11:28:06;;;;;;;3.05;2.10;;;30.60;73.30;;;;;;5116408;28;20198;-85
2022/07/28 11:30:53;;;;;;;3.10;2.20;;;30.40;77.20;;;;;;5114509;28;20237;-84
2022/07/28 11:33:23;;;;;;;6.55;2.08;;;30.90;78.70;;;;;;5115483;28;20298;-79
2022/07/28 11:35:59;;;;;;;5.82;2.15;;;30.80;74.60;;;;;;5115943;28;20569;-80
2022/07/28 11:38:30;;;;;;;3.10;2.40;;;30.30;73.40;;;;;;5116259;27;20609;-80
2022/07/28 11:40:59;;;;;;;4.25;2.08;;;28.90;76.00;;;;;;5136053;27;20206;-80
2022/07/28 11:43:34;;;;;;;5.18;2.25;;;28.20;78.00;;;;;;5135980;27;20217;-78
2022/07/28 11:46:22;;;;;;;5.07;2.30;;;28.00;79.70;;;;;;5135712;27;20727;-83
2022/07/28 11:49:17;;;;;;;6.00;2.30;;;28.10;81.90;;;;;;5135355;27;20288;-78
2022/07/28 11:52:07;;;;;;;5.83;2.60;;;28.40;81.10;;;;;;5130139;27;20210;-81
2022/07/28 11:54:38;;;;;;;3.97;2.33;;;28.50;80.60;;;;;;5136749;27;20572;-79
2022/07/28 11:57:10;;;;;;;7.20;2.33;;;28.50;80.40;;;;;;5136693;27;20305;-77
2022/07/28 11:59:50;;;;;;;3.97;2.30;;;28.50;81.30;;;;;;5136559;27;20231;-79
2022/07/28 12:02:20;;;;;;;4.60;2.30;;;28.90;81.80;;;;;;5136691;27;20197;-80
2022/07/28 12:05:04;;;;;;;4.83;2.20;;;28.60;79.10;;;;;;5136650;27;20580;-82
2022/07/28 12:07:45;;;;;;;6.17;2.50;;;28.60;80.70;;;;;;5136192;27;20201;-82
2022/07/28 12:10:33;;;;;;;5.57;2.27;;;28.20;81.40;;;;;;5135726;27;20193;-76
2022/07/28 12:13:27;;;;;;;3.90;2.20;;;28.40;80.50;;;;;;5136464;27;20630;-82
2022/07/28 12:15:56;;;;;;;4.80;2.60;;;28.20;81.50;;;;;;5135822;27;20561;-78
2022/07/28 12:18:25;;;;;;;5.20;2.63;;;28.30;82.30;;;;;;5136240;27;20722;-76
2022/07/28 12:20:53;;;;;;;5.53;2.60;;;28.10;82.60;;;;;;5135944;27;20251;-78
2022/07/28 12:23:33;;;;;;;4.27;2.27;;;28.30;81.80;;;;;;5135902;27;20594;-77
2022/07/28 12:26:34;;;;;;;5.53;2.43;;;28.20;82.60;;;;;;5134882;27;20208;-81
2022/07/28 12:29:12;;;;;;;7.73;2.43;;;28.60;85.50;;;;;;5120206;27;20212;-80
2022/07/28 12:31:54;;;;;;;3.43;2.50;;;28.80;85.70;;;;;;5116484;28;20529;-77
2022/07/28 12:34:23;;;;;;;3.40;2.50;;;28.30;82.30;;;;;;5120354;28;20202;-76
2022/07/28 12:36:57;;;;;;;8.57;2.87;;;28.10;82.50;;;;;;5130712;28;20641;-77
2022/07/28 12:39:31;;;;;;;3.67;2.50;;;28.20;82.30;;;;;;5115630;28;20202;-80
2022/07/28 12:42:05;;;;;;;4.63;2.57;;;28.20;83.10;;;;;;5114459;28;20232;-76
2022/07/28 12:44:35;;;;;;;3.17;2.00;;;27.40;83.30;;;;;;5114582;28;20229;-79
2022/07/28 12:47:06;;;;;;;5.77;2.47;;;27.80;85.70;;;;;;5114441;28;20696;-78
2022/07/28 12:49:36;;;;;;;3.83;2.37;;;27.80;85.00;;;;;;5114467;28;20255;-80
2022/07/28 12:52:16;;;;;;;7.30;2.60;;;28.10;85.20;;;;;;5115001;28;20210;-81
2022/07/28 12:54:44;;;;;;;6.27;2.40;;;28.60;83.90;;;;;;5114715;28;20214;-80
2022/07/28 12:57:46;;;;;;;3.63;2.20;;;28.60;84.70;;;;;;5114749;28;20206;-80
2022/07/28 13:00:20;;;;;;;6.57;2.47;;;28.60;82.40;;;;;;5114879;28;20228;-80
2022/07/28 13:02:49;;;;;;;5.90;2.60;;;28.70;81.50;;;;;;5114754;28;20225;-78
2022/07/28 13:08:22;;;;;;;4.23;2.40;;;28.30;80.40;;;;;;5114187;28;20255;-77
2022/07/28 13:10:52;;;;;;;7.27;2.40;;;28.40;83.00;;;;;;5114155;28;20206;-79
2022/07/28 13:13:26;;;;;;;6.17;2.60;;;28.60;82.50;;;;;;5113726;28;20194;-78
2022/07/28 13:16:15;;;;;;;3.87;2.77;;;28.20;82.80;;;;;;5122946;28;20206;-78